Castro Verd, Portugal
Current Conditions -  °F | °C
As of 4:00 AM on Sunday 26 Oct 2014 (Local Time) from LPBJ Reporting Station
Clear Clear  
Wind Chill: 16°   Ceiling: Unl
Heat Index: 16°   Visibility: 6mi
Dew Point: 10°   Wind: 6mph
Humidity: 68%   Direction: 110°ESE
Pressure: 30.09"   Gusts: NA
Location:  37.7°N, 8.08°W
Report Text: LPBJ 260300Z 11005KT CAVOK 16/10 Q1019
Loading
Personal Weather Stations






























Interactive Weather Map
Tropical Storm Tracking
New forecast layout! Learn more

10-Day Weather Forecast

Advertisements
Track Severe Weather on mobile